sensor_id;sensor_type;location;lat;lon;timestamp;P1;durP1;ratioP1;P2;durP2;ratioP2
11187;SDS011;5650;52.700;7.306;2023-07-30T00:02:12;9.60;;;8.15;;
11187;SDS011;5650;52.700;7.306;2023-07-30T00:04:45;12.98;;;7.40;;
11187;SDS011;5650;52.700;7.306;2023-07-30T00:07:12;9.68;;;7.80;;
11187;SDS011;5650;52.700;7.306;2023-07-30T00:09:42;15.40;;;7.53;;
11187;SDS011;5650;52.700;7.306;2023-07-30T00:12:09;11.73;;;7.22;;
11187;SDS011;5650;52.700;7.306;2023-07-30T00:14:41;10.45;;;7.13;;
11187;SDS011;5650;52.700;7.306;2023-07-30T00:17:16;12.90;;;7.88;;
11187;SDS011;5650;52.700;7.306;2023-07-30T00:19:43;10.77;;;7.65;;
11187;SDS011;5650;52.700;7.306;2023-07-30T00:22:11;10.45;;;6.82;;
11187;SDS011;5650;52.700;7.306;2023-07-30T00:24:38;11.55;;;7.35;;
11187;SDS011;5650;52.700;7.306;2023-07-30T00:27:05;16.83;;;7.97;;
11187;SDS011;5650;52.700;7.306;2023-07-30T00:29:35;10.25;;;7.20;;
11187;SDS011;5650;52.700;7.306;2023-07-30T00:32:08;12.80;;;7.68;;
11187;SDS011;5650;52.700;7.306;2023-07-30T00:34:45;14.70;;;7.40;;
11187;SDS011;5650;52.700;7.306;2023-07-30T00:37:12;10.55;;;7.20;;
11187;SDS011;5650;52.700;7.306;2023-07-30T00:39:44;12.45;;;6.80;;
11187;SDS011;5650;52.700;7.306;2023-07-30T00:42:11;12.65;;;6.90;;
11187;SDS011;5650;52.700;7.306;2023-07-30T00:44:44;15.00;;;5.80;;
11187;SDS011;5650;52.700;7.306;2023-07-30T00:47:11;15.45;;;5.95;;
11187;SDS011;5650;52.700;7.306;2023-07-30T00:49:46;19.38;;;7.47;;
11187;SDS011;5650;52.700;7.306;2023-07-30T00:52:14;12.93;;;6.78;;
11187;SDS011;5650;52.700;7.306;2023-07-30T00:54:42;14.77;;;6.43;;
11187;SDS011;5650;52.700;7.306;2023-07-30T00:57:12;15.52;;;6.40;;
11187;SDS011;5650;52.700;7.306;2023-07-30T00:59:39;16.75;;;6.30;;
11187;SDS011;5650;52.700;7.306;2023-07-30T01:02:07;15.07;;;5.85;;
11187;SDS011;5650;52.700;7.306;2023-07-30T01:04:36;14.15;;;5.38;;
11187;SDS011;5650;52.700;7.306;2023-07-30T01:07:08;11.40;;;5.53;;
11187;SDS011;5650;52.700;7.306;2023-07-30T01:09:36;13.77;;;6.03;;
11187;SDS011;5650;52.700;7.306;2023-07-30T01:12:04;13.68;;;5.63;;
11187;SDS011;5650;52.700;7.306;2023-07-30T01:14:35;15.98;;;5.88;;
11187;SDS011;5650;52.700;7.306;2023-07-30T01:17:04;14.73;;;4.90;;
11187;SDS011;5650;52.700;7.306;2023-07-30T01:19:31;13.75;;;5.78;;
11187;SDS011;5650;52.700;7.306;2023-07-30T01:22:05;13.60;;;5.60;;
11187;SDS011;5650;52.700;7.306;2023-07-30T01:24:32;14.63;;;5.80;;
11187;SDS011;5650;52.700;7.306;2023-07-30T01:27:04;11.40;;;5.07;;
11187;SDS011;5650;52.700;7.306;2023-07-30T01:29:35;14.13;;;6.15;;
11187;SDS011;5650;52.700;7.306;2023-07-30T01:32:11;14.70;;;5.72;;
11187;SDS011;5650;52.700;7.306;2023-07-30T01:34:40;17.48;;;5.85;;
11187;SDS011;5650;52.700;7.306;2023-07-30T01:37:12;14.40;;;5.10;;
11187;SDS011;5650;52.700;7.306;2023-07-30T01:39:47;15.50;;;5.47;;
11187;SDS011;5650;52.700;7.306;2023-07-30T01:42:15;16.55;;;4.97;;
11187;SDS011;5650;52.700;7.306;2023-07-30T01:44:42;18.17;;;5.22;;
11187;SDS011;5650;52.700;7.306;2023-07-30T01:47:11;8.55;;;4.13;;
11187;SDS011;5650;52.700;7.306;2023-07-30T01:49:41;13.93;;;4.60;;
11187;SDS011;5650;52.700;7.306;2023-07-30T01:52:18;17.10;;;4.80;;
11187;SDS011;5650;52.700;7.306;2023-07-30T01:54:45;15.25;;;4.43;;
11187;SDS011;5650;52.700;7.306;2023-07-30T01:57:12;16.10;;;4.47;;
11187;SDS011;5650;52.700;7.306;2023-07-30T01:59:42;15.10;;;5.05;;
11187;SDS011;5650;52.700;7.306;2023-07-30T02:02:10;19.05;;;4.70;;
11187;SDS011;5650;52.700;7.306;2023-07-30T02:04:40;15.38;;;4.43;;
11187;SDS011;5650;52.700;7.306;2023-07-30T02:07:07;16.27;;;4.25;;
11187;SDS011;5650;52.700;7.306;2023-07-30T02:09:40;11.18;;;4.68;;
11187;SDS011;5650;52.700;7.306;2023-07-30T02:12:10;12.93;;;4.03;;
11187;SDS011;5650;52.700;7.306;2023-07-30T02:14:40;11.77;;;4.13;;
11187;SDS011;5650;52.700;7.306;2023-07-30T02:17:07;14.98;;;4.10;;
11187;SDS011;5650;52.700;7.306;2023-07-30T02:19:43;16.15;;;4.57;;
11187;SDS011;5650;52.700;7.306;2023-07-30T02:22:10;17.13;;;4.10;;
11187;SDS011;5650;52.700;7.306;2023-07-30T02:24:39;12.18;;;4.25;;
11187;SDS011;5650;52.700;7.306;2023-07-30T02:27:06;14.10;;;3.92;;
11187;SDS011;5650;52.700;7.306;2023-07-30T02:29:33;17.58;;;4.93;;
11187;SDS011;5650;52.700;7.306;2023-07-30T02:32:00;12.55;;;4.10;;
11187;SDS011;5650;52.700;7.306;2023-07-30T02:34:33;13.95;;;3.80;;
11187;SDS011;5650;52.700;7.306;2023-07-30T02:37:06;14.15;;;4.25;;
11187;SDS011;5650;52.700;7.306;2023-07-30T02:39:33;12.27;;;4.47;;
11187;SDS011;5650;52.700;7.306;2023-07-30T02:42:02;12.63;;;3.97;;
11187;SDS011;5650;52.700;7.306;2023-07-30T02:44:29;11.27;;;4.50;;
11187;SDS011;5650;52.700;7.306;2023-07-30T02:46:58;14.63;;;4.30;;
11187;SDS011;5650;52.700;7.306;2023-07-30T02:49:25;11.25;;;4.72;;
11187;SDS011;5650;52.700;7.306;2023-07-30T02:51:55;12.98;;;4.43;;
11187;SDS011;5650;52.700;7.306;2023-07-30T02:54:34;12.57;;;4.30;;
11187;SDS011;5650;52.700;7.306;2023-07-30T02:57:09;9.55;;;4.50;;
11187;SDS011;5650;52.700;7.306;2023-07-30T02:59:47;14.00;;;4.63;;
11187;SDS011;5650;52.700;7.306;2023-07-30T03:02:17;13.85;;;4.45;;
11187;SDS011;5650;52.700;7.306;2023-07-30T03:04:44;14.57;;;4.55;;
11187;SDS011;5650;52.700;7.306;2023-07-30T03:09:45;9.73;;;4.30;;
11187;SDS011;5650;52.700;7.306;2023-07-30T03:12:13;14.73;;;5.18;;
11187;SDS011;5650;52.700;7.306;2023-07-30T03:14:40;9.77;;;4.80;;
11187;SDS011;5650;52.700;7.306;2023-07-30T03:17:08;17.48;;;5.18;;
11187;SDS011;5650;52.700;7.306;2023-07-30T03:19:35;11.50;;;5.15;;
11187;SDS011;5650;52.700;7.306;2023-07-30T03:22:08;14.82;;;5.03;;
11187;SDS011;5650;52.700;7.306;2023-07-30T03:24:35;14.60;;;5.35;;
11187;SDS011;5650;52.700;7.306;2023-07-30T03:27:03;17.33;;;5.05;;
11187;SDS011;5650;52.700;7.306;2023-07-30T03:29:32;15.85;;;5.50;;
11187;SDS011;5650;52.700;7.306;2023-07-30T03:31:59;9.07;;;4.50;;
11187;SDS011;5650;52.700;7.306;2023-07-30T03:34:26;14.98;;;5.75;;
11187;SDS011;5650;52.700;7.306;2023-07-30T03:36:53;16.70;;;5.65;;
11187;SDS011;5650;52.700;7.306;2023-07-30T03:39:29;15.00;;;5.07;;
11187;SDS011;5650;52.700;7.306;2023-07-30T03:41:56;14.85;;;5.53;;
11187;SDS011;5650;52.700;7.306;2023-07-30T03:44:23;15.48;;;5.57;;
11187;SDS011;5650;52.700;7.306;2023-07-30T03:46:52;15.80;;;5.50;;
11187;SDS011;5650;52.700;7.306;2023-07-30T03:49:19;16.33;;;5.30;;
11187;SDS011;5650;52.700;7.306;2023-07-30T03:51:47;9.43;;;5.35;;
11187;SDS011;5650;52.700;7.306;2023-07-30T03:54:14;18.33;;;5.38;;
11187;SDS011;5650;52.700;7.306;2023-07-30T03:56:41;14.23;;;5.57;;
11187;SDS011;5650;52.700;7.306;2023-07-30T03:59:08;13.38;;;5.53;;
11187;SDS011;5650;52.700;7.306;2023-07-30T04:01:36;10.20;;;5.07;;
11187;SDS011;5650;52.700;7.306;2023-07-30T04:04:04;14.80;;;6.05;;
11187;SDS011;5650;52.700;7.306;2023-07-30T04:06:37;11.10;;;5.10;;
11187;SDS011;5650;52.700;7.306;2023-07-30T04:09:08;12.30;;;4.93;;
11187;SDS011;5650;52.700;7.306;2023-07-30T04:11:38;16.48;;;5.20;;
11187;SDS011;5650;52.700;7.306;2023-07-30T04:14:05;14.43;;;5.22;;
11187;SDS011;5650;52.700;7.306;2023-07-30T04:16:42;16.08;;;5.78;;
11187;SDS011;5650;52.700;7.306;2023-07-30T04:19:13;19.92;;;5.50;;
11187;SDS011;5650;52.700;7.306;2023-07-30T04:21:42;12.60;;;5.05;;
11187;SDS011;5650;52.700;7.306;2023-07-30T04:24:12;17.45;;;5.60;;
11187;SDS011;5650;52.700;7.306;2023-07-30T04:26:43;12.90;;;5.28;;
11187;SDS011;5650;52.700;7.306;2023-07-30T04:29:10;13.77;;;5.32;;
11187;SDS011;5650;52.700;7.306;2023-07-30T04:31:39;10.05;;;4.65;;
11187;SDS011;5650;52.700;7.306;2023-07-30T04:34:06;13.18;;;5.63;;
11187;SDS011;5650;52.700;7.306;2023-07-30T04:36:43;10.38;;;4.47;;
11187;SDS011;5650;52.700;7.306;2023-07-30T04:39:13;11.77;;;5.45;;
11187;SDS011;5650;52.700;7.306;2023-07-30T04:41:43;11.85;;;4.70;;
11187;SDS011;5650;52.700;7.306;2023-07-30T04:44:10;15.45;;;5.45;;
11187;SDS011;5650;52.700;7.306;2023-07-30T04:46:38;14.15;;;5.07;;
11187;SDS011;5650;52.700;7.306;2023-07-30T04:49:11;14.07;;;5.20;;
11187;SDS011;5650;52.700;7.306;2023-07-30T04:51:41;13.50;;;5.10;;
11187;SDS011;5650;52.700;7.306;2023-07-30T04:54:09;17.50;;;5.43;;
11187;SDS011;5650;52.700;7.306;2023-07-30T04:56:36;15.18;;;4.95;;
11187;SDS011;5650;52.700;7.306;2023-07-30T04:59:07;13.57;;;4.70;;
11187;SDS011;5650;52.700;7.306;2023-07-30T05:01:34;12.68;;;4.38;;
11187;SDS011;5650;52.700;7.306;2023-07-30T05:04:01;12.05;;;4.32;;
11187;SDS011;5650;52.700;7.306;2023-07-30T05:06:28;13.32;;;4.53;;
11187;SDS011;5650;52.700;7.306;2023-07-30T05:08:59;12.02;;;4.70;;
11187;SDS011;5650;52.700;7.306;2023-07-30T05:11:27;9.15;;;4.30;;
11187;SDS011;5650;52.700;7.306;2023-07-30T05:13:57;11.50;;;4.70;;
11187;SDS011;5650;52.700;7.306;2023-07-30T05:16:28;13.60;;;4.40;;
11187;SDS011;5650;52.700;7.306;2023-07-30T05:18:55;12.73;;;4.32;;
11187;SDS011;5650;52.700;7.306;2023-07-30T05:21:22;13.40;;;4.22;;
11187;SDS011;5650;52.700;7.306;2023-07-30T05:23:49;18.13;;;5.32;;
11187;SDS011;5650;52.700;7.306;2023-07-30T05:29:31;12.50;;;4.72;;
11187;SDS011;5650;52.700;7.306;2023-07-30T05:31:58;15.20;;;4.32;;
11187;SDS011;5650;52.700;7.306;2023-07-30T05:34:28;12.95;;;4.68;;
11187;SDS011;5650;52.700;7.306;2023-07-30T05:36:55;13.27;;;4.85;;
11187;SDS011;5650;52.700;7.306;2023-07-30T05:39:25;16.35;;;4.63;;
11187;SDS011;5650;52.700;7.306;2023-07-30T05:41:52;15.90;;;5.18;;
11187;SDS011;5650;52.700;7.306;2023-07-30T05:44:20;14.82;;;4.20;;
11187;SDS011;5650;52.700;7.306;2023-07-30T05:46:51;13.48;;;4.43;;
11187;SDS011;5650;52.700;7.306;2023-07-30T05:49:21;12.75;;;4.32;;
11187;SDS011;5650;52.700;7.306;2023-07-30T05:51:49;17.27;;;4.97;;
11187;SDS011;5650;52.700;7.306;2023-07-30T05:54:22;12.38;;;4.55;;
11187;SDS011;5650;52.700;7.306;2023-07-30T05:56:49;15.95;;;5.28;;
11187;SDS011;5650;52.700;7.306;2023-07-30T05:59:16;16.67;;;4.70;;
11187;SDS011;5650;52.700;7.306;2023-07-30T06:01:46;14.65;;;4.80;;
11187;SDS011;5650;52.700;7.306;2023-07-30T06:04:15;18.30;;;4.90;;
11187;SDS011;5650;52.700;7.306;2023-07-30T06:06:48;19.08;;;5.47;;
11187;SDS011;5650;52.700;7.306;2023-07-30T06:09:24;15.25;;;5.38;;
11187;SDS011;5650;52.700;7.306;2023-07-30T06:11:51;20.50;;;5.45;;
11187;SDS011;5650;52.700;7.306;2023-07-30T06:14:36;15.88;;;5.90;;
11187;SDS011;5650;52.700;7.306;2023-07-30T06:17:03;14.35;;;5.00;;
11187;SDS011;5650;52.700;7.306;2023-07-30T06:19:32;14.82;;;5.18;;
11187;SDS011;5650;52.700;7.306;2023-07-30T06:22:03;19.05;;;6.30;;
11187;SDS011;5650;52.700;7.306;2023-07-30T06:24:30;24.70;;;6.20;;
11187;SDS011;5650;52.700;7.306;2023-07-30T06:29:32;19.92;;;6.15;;
11187;SDS011;5650;52.700;7.306;2023-07-30T06:31:59;17.42;;;5.57;;
11187;SDS011;5650;52.700;7.306;2023-07-30T06:34:26;18.60;;;6.32;;
11187;SDS011;5650;52.700;7.306;2023-07-30T06:36:58;26.02;;;6.35;;
11187;SDS011;5650;52.700;7.306;2023-07-30T06:39:25;15.60;;;5.03;;
11187;SDS011;5650;52.700;7.306;2023-07-30T06:41:52;17.40;;;6.00;;
11187;SDS011;5650;52.700;7.306;2023-07-30T06:44:23;20.27;;;6.63;;
11187;SDS011;5650;52.700;7.306;2023-07-30T06:47:03;21.77;;;6.90;;
11187;SDS011;5650;52.700;7.306;2023-07-30T06:49:33;16.38;;;5.82;;
11187;SDS011;5650;52.700;7.306;2023-07-30T06:54:46;17.45;;;5.93;;
11187;SDS011;5650;52.700;7.306;2023-07-30T06:57:13;13.88;;;5.65;;
11187;SDS011;5650;52.700;7.306;2023-07-30T06:59:44;19.42;;;5.63;;
11187;SDS011;5650;52.700;7.306;2023-07-30T07:02:11;22.58;;;6.68;;
11187;SDS011;5650;52.700;7.306;2023-07-30T07:04:38;20.73;;;5.97;;
11187;SDS011;5650;52.700;7.306;2023-07-30T07:07:05;25.13;;;6.53;;
11187;SDS011;5650;52.700;7.306;2023-07-30T07:09:34;17.55;;;5.85;;
11187;SDS011;5650;52.700;7.306;2023-07-30T07:12:01;26.05;;;6.07;;
11187;SDS011;5650;52.700;7.306;2023-07-30T07:14:28;17.85;;;5.07;;
11187;SDS011;5650;52.700;7.306;2023-07-30T07:16:55;17.65;;;5.63;;
11187;SDS011;5650;52.700;7.306;2023-07-30T07:19:24;21.80;;;6.28;;
11187;SDS011;5650;52.700;7.306;2023-07-30T07:21:51;20.73;;;5.45;;
11187;SDS011;5650;52.700;7.306;2023-07-30T07:24:18;13.98;;;4.90;;
11187;SDS011;5650;52.700;7.306;2023-07-30T07:26:47;17.40;;;5.88;;
11187;SDS011;5650;52.700;7.306;2023-07-30T07:29:14;17.77;;;6.57;;
11187;SDS011;5650;52.700;7.306;2023-07-30T07:31:41;17.30;;;5.53;;
11187;SDS011;5650;52.700;7.306;2023-07-30T07:34:09;18.63;;;5.80;;
11187;SDS011;5650;52.700;7.306;2023-07-30T07:36:36;18.25;;;5.88;;
11187;SDS011;5650;52.700;7.306;2023-07-30T07:39:04;18.83;;;6.68;;
11187;SDS011;5650;52.700;7.306;2023-07-30T07:41:31;23.17;;;6.20;;
11187;SDS011;5650;52.700;7.306;2023-07-30T07:44:00;18.40;;;5.47;;
11187;SDS011;5650;52.700;7.306;2023-07-30T07:46:27;19.17;;;5.55;;
11187;SDS011;5650;52.700;7.306;2023-07-30T07:48:55;21.48;;;5.32;;
11187;SDS011;5650;52.700;7.306;2023-07-30T07:51:22;17.63;;;5.60;;
11187;SDS011;5650;52.700;7.306;2023-07-30T07:53:49;21.25;;;6.78;;
11187;SDS011;5650;52.700;7.306;2023-07-30T07:56:17;19.20;;;5.57;;
11187;SDS011;5650;52.700;7.306;2023-07-30T07:58:44;16.67;;;5.43;;
11187;SDS011;5650;52.700;7.306;2023-07-30T08:01:13;21.67;;;5.50;;
11187;SDS011;5650;52.700;7.306;2023-07-30T08:03:40;18.48;;;5.30;;
11187;SDS011;5650;52.700;7.306;2023-07-30T08:06:08;20.33;;;5.57;;
11187;SDS011;5650;52.700;7.306;2023-07-30T08:08:35;15.73;;;5.65;;
11187;SDS011;5650;52.700;7.306;2023-07-30T08:11:04;16.98;;;6.07;;
11187;SDS011;5650;52.700;7.306;2023-07-30T08:13:32;21.98;;;6.00;;
11187;SDS011;5650;52.700;7.306;2023-07-30T08:15:59;13.90;;;4.95;;
11187;SDS011;5650;52.700;7.306;2023-07-30T08:18:28;19.45;;;5.70;;
11187;SDS011;5650;52.700;7.306;2023-07-30T08:20:55;23.48;;;5.68;;
11187;SDS011;5650;52.700;7.306;2023-07-30T08:23:25;21.38;;;5.70;;
11187;SDS011;5650;52.700;7.306;2023-07-30T08:25:52;21.45;;;5.80;;
11187;SDS011;5650;52.700;7.306;2023-07-30T08:28:28;19.65;;;5.65;;
11187;SDS011;5650;52.700;7.306;2023-07-30T08:30:59;17.23;;;6.03;;
11187;SDS011;5650;52.700;7.306;2023-07-30T08:33:31;16.67;;;6.10;;
11187;SDS011;5650;52.700;7.306;2023-07-30T08:36:05;19.33;;;5.57;;
11187;SDS011;5650;52.700;7.306;2023-07-30T08:38:32;19.85;;;6.65;;
11187;SDS011;5650;52.700;7.306;2023-07-30T08:40:59;23.65;;;6.40;;
11187;SDS011;5650;52.700;7.306;2023-07-30T08:43:29;14.18;;;5.15;;
11187;SDS011;5650;52.700;7.306;2023-07-30T08:45:57;19.92;;;5.55;;
11187;SDS011;5650;52.700;7.306;2023-07-30T08:48:28;14.43;;;4.93;;
11187;SDS011;5650;52.700;7.306;2023-07-30T08:50:59;17.33;;;4.40;;
11187;SDS011;5650;52.700;7.306;2023-07-30T08:53:27;18.10;;;4.97;;
11187;SDS011;5650;52.700;7.306;2023-07-30T08:56:00;12.73;;;4.82;;
11187;SDS011;5650;52.700;7.306;2023-07-30T08:58:31;13.30;;;4.80;;
11187;SDS011;5650;52.700;7.306;2023-07-30T09:01:01;17.42;;;4.55;;
11187;SDS011;5650;52.700;7.306;2023-07-30T09:03:41;17.50;;;4.53;;
11187;SDS011;5650;52.700;7.306;2023-07-30T09:06:15;20.75;;;4.47;;
11187;SDS011;5650;52.700;7.306;2023-07-30T09:08:45;22.30;;;5.15;;
11187;SDS011;5650;52.700;7.306;2023-07-30T09:11:15;14.48;;;3.85;;
11187;SDS011;5650;52.700;7.306;2023-07-30T09:13:45;11.82;;;3.47;;
11187;SDS011;5650;52.700;7.306;2023-07-30T09:16:13;11.85;;;3.65;;
11187;SDS011;5650;52.700;7.306;2023-07-30T09:18:53;11.02;;;3.35;;
11187;SDS011;5650;52.700;7.306;2023-07-30T09:21:30;12.90;;;3.65;;
11187;SDS011;5650;52.700;7.306;2023-07-30T09:23:59;12.38;;;3.58;;
11187;SDS011;5650;52.700;7.306;2023-07-30T09:26:36;13.88;;;3.40;;
11187;SDS011;5650;52.700;7.306;2023-07-30T09:29:12;14.60;;;3.80;;
11187;SDS011;5650;52.700;7.306;2023-07-30T09:31:43;14.43;;;3.40;;
11187;SDS011;5650;52.700;7.306;2023-07-30T09:34:16;13.10;;;3.72;;
11187;SDS011;5650;52.700;7.306;2023-07-30T09:36:49;12.15;;;3.45;;
11187;SDS011;5650;52.700;7.306;2023-07-30T09:39:18;14.38;;;3.60;;
11187;SDS011;5650;52.700;7.306;2023-07-30T09:41:50;15.95;;;4.18;;
11187;SDS011;5650;52.700;7.306;2023-07-30T09:44:24;16.20;;;4.30;;
11187;SDS011;5650;52.700;7.306;2023-07-30T09:46:51;8.57;;;3.60;;
11187;SDS011;5650;52.700;7.306;2023-07-30T09:49:24;15.70;;;3.92;;
11187;SDS011;5650;52.700;7.306;2023-07-30T09:51:53;18.10;;;4.20;;
11187;SDS011;5650;52.700;7.306;2023-07-30T09:54:20;13.05;;;3.78;;
11187;SDS011;5650;52.700;7.306;2023-07-30T09:56:48;12.25;;;3.83;;
11187;SDS011;5650;52.700;7.306;2023-07-30T09:59:15;10.70;;;3.83;;
11187;SDS011;5650;52.700;7.306;2023-07-30T10:01:49;13.75;;;3.75;;
11187;SDS011;5650;52.700;7.306;2023-07-30T10:04:21;9.82;;;3.30;;
11187;SDS011;5650;52.700;7.306;2023-07-30T10:07:08;11.77;;;3.47;;
11187;SDS011;5650;52.700;7.306;2023-07-30T10:09:43;14.15;;;3.72;;
11187;SDS011;5650;52.700;7.306;2023-07-30T10:12:16;20.85;;;3.72;;
11187;SDS011;5650;52.700;7.306;2023-07-30T10:14:49;11.35;;;3.70;;
11187;SDS011;5650;52.700;7.306;2023-07-30T10:17:19;11.43;;;3.97;;
11187;SDS011;5650;52.700;7.306;2023-07-30T10:19:49;11.00;;;3.58;;
11187;SDS011;5650;52.700;7.306;2023-07-30T10:22:21;13.30;;;3.15;;
11187;SDS011;5650;52.700;7.306;2023-07-30T10:24:56;11.65;;;3.60;;
11187;SDS011;5650;52.700;7.306;2023-07-30T10:27:35;12.10;;;3.22;;
11187;SDS011;5650;52.700;7.306;2023-07-30T10:30:10;11.15;;;3.35;;
11187;SDS011;5650;52.700;7.306;2023-07-30T10:33:02;10.93;;;3.33;;
11187;SDS011;5650;52.700;7.306;2023-07-30T10:35:39;10.75;;;3.00;;
11187;SDS011;5650;52.700;7.306;2023-07-30T10:38:16;10.35;;;3.35;;
11187;SDS011;5650;52.700;7.306;2023-07-30T10:41:01;11.43;;;3.90;;
11187;SDS011;5650;52.700;7.306;2023-07-30T10:43:32;9.95;;;3.67;;
11187;SDS011;5650;52.700;7.306;2023-07-30T10:46:09;13.30;;;4.22;;
11187;SDS011;5650;52.700;7.306;2023-07-30T10:48:44;11.13;;;3.47;;
11187;SDS011;5650;52.700;7.306;2023-07-30T10:51:13;14.32;;;3.67;;
11187;SDS011;5650;52.700;7.306;2023-07-30T10:53:43;13.20;;;3.47;;
11187;SDS011;5650;52.700;7.306;2023-07-30T10:56:15;12.10;;;3.78;;
11187;SDS011;5650;52.700;7.306;2023-07-30T10:58:49;12.13;;;3.10;;
11187;SDS011;5650;52.700;7.306;2023-07-30T11:01:17;10.98;;;3.10;;
11187;SDS011;5650;52.700;7.306;2023-07-30T11:03:47;16.02;;;4.18;;
11187;SDS011;5650;52.700;7.306;2023-07-30T11:06:20;18.08;;;3.67;;
11187;SDS011;5650;52.700;7.306;2023-07-30T11:08:49;11.35;;;3.15;;
11187;SDS011;5650;52.700;7.306;2023-07-30T11:11:17;10.10;;;2.88;;
11187;SDS011;5650;52.700;7.306;2023-07-30T11:13:47;11.82;;;3.22;;
11187;SDS011;5650;52.700;7.306;2023-07-30T11:16:20;11.88;;;2.65;;
11187;SDS011;5650;52.700;7.306;2023-07-30T11:18:47;6.88;;;2.58;;
11187;SDS011;5650;52.700;7.306;2023-07-30T11:21:30;10.52;;;2.83;;
11187;SDS011;5650;52.700;7.306;2023-07-30T11:24:02;11.00;;;3.22;;
11187;SDS011;5650;52.700;7.306;2023-07-30T11:26:40;12.05;;;3.03;;
11187;SDS011;5650;52.700;7.306;2023-07-30T11:32:03;10.13;;;2.80;;
11187;SDS011;5650;52.700;7.306;2023-07-30T11:34:31;8.88;;;2.42;;
11187;SDS011;5650;52.700;7.306;2023-07-30T11:37:04;11.20;;;3.03;;
11187;SDS011;5650;52.700;7.306;2023-07-30T11:39:37;7.88;;;2.90;;
11187;SDS011;5650;52.700;7.306;2023-07-30T11:42:07;9.60;;;2.83;;
11187;SDS011;5650;52.700;7.306;2023-07-30T11:44:44;9.75;;;2.65;;
11187;SDS011;5650;52.700;7.306;2023-07-30T11:47:11;8.98;;;2.58;;
11187;SDS011;5650;52.700;7.306;2023-07-30T11:49:54;11.82;;;2.42;;
11187;SDS011;5650;52.700;7.306;2023-07-30T11:52:22;7.28;;;2.17;;
11187;SDS011;5650;52.700;7.306;2023-07-30T11:55:00;7.82;;;2.15;;
11187;SDS011;5650;52.700;7.306;2023-07-30T11:57:33;5.18;;;1.85;;
11187;SDS011;5650;52.700;7.306;2023-07-30T12:00:04;6.60;;;2.33;;
11187;SDS011;5650;52.700;7.306;2023-07-30T12:02:37;11.25;;;2.42;;
11187;SDS011;5650;52.700;7.306;2023-07-30T12:05:16;8.68;;;1.92;;
11187;SDS011;5650;52.700;7.306;2023-07-30T12:07:47;8.80;;;2.50;;
11187;SDS011;5650;52.700;7.306;2023-07-30T12:10:19;7.38;;;2.08;;
11187;SDS011;5650;52.700;7.306;2023-07-30T12:12:52;7.10;;;1.95;;
11187;SDS011;5650;52.700;7.306;2023-07-30T12:15:35;5.53;;;1.98;;
11187;SDS011;5650;52.700;7.306;2023-07-30T12:18:02;6.05;;;1.90;;
11187;SDS011;5650;52.700;7.306;2023-07-30T12:20:35;6.10;;;1.98;;
11187;SDS011;5650;52.700;7.306;2023-07-30T12:23:03;11.52;;;2.30;;
11187;SDS011;5650;52.700;7.306;2023-07-30T12:25:31;8.63;;;2.13;;
11187;SDS011;5650;52.700;7.306;2023-07-30T12:28:02;10.90;;;2.53;;
11187;SDS011;5650;52.700;7.306;2023-07-30T12:30:29;6.50;;;2.00;;
11187;SDS011;5650;52.700;7.306;2023-07-30T12:33:03;12.35;;;2.65;;
11187;SDS011;5650;52.700;7.306;2023-07-30T12:35:31;10.57;;;2.40;;
11187;SDS011;5650;52.700;7.306;2023-07-30T12:38:02;7.57;;;2.20;;
11187;SDS011;5650;52.700;7.306;2023-07-30T12:40:34;8.13;;;2.70;;
11187;SDS011;5650;52.700;7.306;2023-07-30T12:43:01;5.65;;;2.15;;
11187;SDS011;5650;52.700;7.306;2023-07-30T12:45:29;7.10;;;2.17;;
11187;SDS011;5650;52.700;7.306;2023-07-30T12:48:04;12.82;;;2.30;;
11187;SDS011;5650;52.700;7.306;2023-07-30T12:50:39;7.18;;;2.25;;
11187;SDS011;5650;52.700;7.306;2023-07-30T12:53:09;9.15;;;2.55;;
11187;SDS011;5650;52.700;7.306;2023-07-30T12:55:38;6.75;;;2.10;;
11187;SDS011;5650;52.700;7.306;2023-07-30T12:58:05;11.05;;;2.28;;
11187;SDS011;5650;52.700;7.306;2023-07-30T13:00:41;12.30;;;2.47;;
11187;SDS011;5650;52.700;7.306;2023-07-30T13:03:11;7.50;;;2.00;;
11187;SDS011;5650;52.700;7.306;2023-07-30T13:05:39;8.00;;;1.90;;
11187;SDS011;5650;52.700;7.306;2023-07-30T13:08:06;9.02;;;2.20;;
11187;SDS011;5650;52.700;7.306;2023-07-30T13:10:37;8.15;;;1.80;;
11187;SDS011;5650;52.700;7.306;2023-07-30T13:13:05;7.05;;;1.88;;
11187;SDS011;5650;52.700;7.306;2023-07-30T13:15:41;10.80;;;2.65;;
11187;SDS011;5650;52.700;7.306;2023-07-30T13:18:08;10.65;;;2.25;;
11187;SDS011;5650;52.700;7.306;2023-07-30T13:20:45;5.65;;;1.70;;
11187;SDS011;5650;52.700;7.306;2023-07-30T13:23:19;6.43;;;1.70;;
11187;SDS011;5650;52.700;7.306;2023-07-30T13:25:48;6.82;;;1.67;;
11187;SDS011;5650;52.700;7.306;2023-07-30T13:28:21;7.78;;;2.10;;
11187;SDS011;5650;52.700;7.306;2023-07-30T13:30:52;7.43;;;1.88;;
11187;SDS011;5650;52.700;7.306;2023-07-30T13:33:22;6.68;;;1.70;;
11187;SDS011;5650;52.700;7.306;2023-07-30T13:35:49;4.97;;;1.50;;
11187;SDS011;5650;52.700;7.306;2023-07-30T13:38:16;11.82;;;2.47;;
11187;SDS011;5650;52.700;7.306;2023-07-30T13:40:46;9.73;;;2.05;;
11187;SDS011;5650;52.700;7.306;2023-07-30T13:43:15;6.43;;;1.88;;
11187;SDS011;5650;52.700;7.306;2023-07-30T13:45:45;4.75;;;1.65;;
11187;SDS011;5650;52.700;7.306;2023-07-30T13:48:17;8.93;;;2.30;;
11187;SDS011;5650;52.700;7.306;2023-07-30T13:50:45;12.13;;;2.90;;
11187;SDS011;5650;52.700;7.306;2023-07-30T13:53:18;10.00;;;2.85;;
11187;SDS011;5650;52.700;7.306;2023-07-30T13:55:45;12.23;;;2.58;;
11187;SDS011;5650;52.700;7.306;2023-07-30T13:58:17;11.48;;;2.58;;
11187;SDS011;5650;52.700;7.306;2023-07-30T14:00:53;10.40;;;2.35;;
11187;SDS011;5650;52.700;7.306;2023-07-30T14:03:27;11.32;;;2.53;;
11187;SDS011;5650;52.700;7.306;2023-07-30T14:05:57;9.80;;;2.35;;
11187;SDS011;5650;52.700;7.306;2023-07-30T14:08:34;6.63;;;1.85;;
11187;SDS011;5650;52.700;7.306;2023-07-30T14:11:04;5.32;;;1.60;;
11187;SDS011;5650;52.700;7.306;2023-07-30T14:13:33;7.13;;;1.85;;
11187;SDS011;5650;52.700;7.306;2023-07-30T14:16:09;8.15;;;1.90;;
11187;SDS011;5650;52.700;7.306;2023-07-30T14:18:36;11.05;;;2.10;;
11187;SDS011;5650;52.700;7.306;2023-07-30T14:21:12;11.68;;;2.30;;
11187;SDS011;5650;52.700;7.306;2023-07-30T14:23:42;10.20;;;2.30;;
11187;SDS011;5650;52.700;7.306;2023-07-30T14:26:12;6.20;;;1.90;;
11187;SDS011;5650;52.700;7.306;2023-07-30T14:28:43;7.13;;;1.85;;
11187;SDS011;5650;52.700;7.306;2023-07-30T14:31:13;7.82;;;1.85;;
11187;SDS011;5650;52.700;7.306;2023-07-30T14:33:46;9.75;;;2.03;;
11187;SDS011;5650;52.700;7.306;2023-07-30T14:36:19;8.77;;;1.90;;
11187;SDS011;5650;52.700;7.306;2023-07-30T14:38:46;4.78;;;1.10;;
11187;SDS011;5650;52.700;7.306;2023-07-30T14:41:21;9.13;;;1.60;;
11187;SDS011;5650;52.700;7.306;2023-07-30T14:43:49;8.82;;;2.40;;
11187;SDS011;5650;52.700;7.306;2023-07-30T14:46:28;6.97;;;1.40;;
11187;SDS011;5650;52.700;7.306;2023-07-30T14:48:55;6.43;;;1.70;;
11187;SDS011;5650;52.700;7.306;2023-07-30T14:51:23;6.20;;;1.77;;
11187;SDS011;5650;52.700;7.306;2023-07-30T14:53:53;8.85;;;1.90;;
11187;SDS011;5650;52.700;7.306;2023-07-30T14:56:22;6.88;;;1.95;;
11187;SDS011;5650;52.700;7.306;2023-07-30T14:58:53;6.93;;;1.77;;
11187;SDS011;5650;52.700;7.306;2023-07-30T15:01:30;8.75;;;1.80;;
11187;SDS011;5650;52.700;7.306;2023-07-30T15:03:57;8.52;;;2.08;;
11187;SDS011;5650;52.700;7.306;2023-07-30T15:06:24;8.68;;;1.98;;
11187;SDS011;5650;52.700;7.306;2023-07-30T15:08:52;8.50;;;1.88;;
11187;SDS011;5650;52.700;7.306;2023-07-30T15:11:19;6.68;;;1.80;;
11187;SDS011;5650;52.700;7.306;2023-07-30T15:13:49;5.80;;;2.10;;
11187;SDS011;5650;52.700;7.306;2023-07-30T15:16:18;6.28;;;1.70;;
11187;SDS011;5650;52.700;7.306;2023-07-30T15:18:48;6.80;;;1.77;;
11187;SDS011;5650;52.700;7.306;2023-07-30T15:21:34;5.93;;;1.85;;
11187;SDS011;5650;52.700;7.306;2023-07-30T15:24:04;7.40;;;1.90;;